createdAt,value
2019-03-27T00:01:27.276Z,-1.20
2019-03-27T00:03:57.292Z,-1.20
2019-03-27T00:06:27.263Z,-1.20
2019-03-27T00:08:57.384Z,-1.20
2019-03-27T00:11:27.298Z,-1.30
2019-03-27T00:13:57.297Z,-1.40
2019-03-27T00:16:27.330Z,-1.40
2019-03-27T00:18:57.480Z,-1.30
2019-03-27T00:21:27.921Z,-1.30
2019-03-27T00:23:57.915Z,-1.40
2019-03-27T00:26:27.934Z,-1.50
2019-03-27T00:28:57.988Z,-1.60
2019-03-27T00:31:27.936Z,-1.50
2019-03-27T00:33:57.895Z,-1.60
2019-03-27T00:36:27.989Z,-1.50
2019-03-27T00:38:58.208Z,-1.60
2019-03-27T00:41:28.363Z,-1.60
2019-03-27T00:43:58.485Z,-1.80
2019-03-27T00:46:28.491Z,-1.90
2019-03-27T00:48:58.466Z,-1.90
2019-03-27T00:51:28.507Z,-1.80
2019-03-27T00:53:58.511Z,-1.80
2019-03-27T00:56:28.557Z,-1.90
2019-03-27T00:58:58.522Z,-1.90
2019-03-27T01:01:28.561Z,-1.90
2019-03-27T01:03:58.740Z,-1.90
2019-03-27T01:06:28.992Z,-2.00
2019-03-27T01:08:58.977Z,-2.10
2019-03-27T01:11:28.979Z,-2.00
2019-03-27T01:13:59.470Z,-2.10
2019-03-27T01:16:29.737Z,-2.20
2019-03-27T01:18:59.704Z,-2.10
2019-03-27T01:21:29.718Z,-2.20
2019-03-27T01:23:59.708Z,-2.20
2019-03-27T01:26:29.907Z,-2.10
2019-03-27T01:29:00.137Z,-2.10
2019-03-27T01:31:30.089Z,-2.00
2019-03-27T01:34:00.174Z,-2.00
2019-03-27T01:36:30.417Z,-2.00
2019-03-27T01:39:00.317Z,-1.90
2019-03-27T01:41:30.359Z,-1.80
2019-03-27T01:44:00.360Z,-2.00
2019-03-27T01:46:30.450Z,-2.00
2019-03-27T01:49:00.777Z,-2.00
2019-03-27T01:51:30.745Z,-1.90
2019-03-27T01:54:00.793Z,-1.90
2019-03-27T01:56:30.877Z,-1.90
2019-03-27T01:59:00.894Z,-2.00
2019-03-27T02:01:30.857Z,-2.00
2019-03-27T02:04:01.033Z,-2.00
2019-03-27T02:06:31.023Z,-1.90
2019-03-27T02:09:01.030Z,-1.90
2019-03-27T02:11:31.090Z,-2.00
2019-03-27T02:14:01.214Z,-2.10
2019-03-27T02:16:31.534Z,-2.10
2019-03-27T02:19:01.825Z,-2.20
2019-03-27T02:21:31.863Z,-2.10
2019-03-27T02:24:01.855Z,-2.10
2019-03-27T02:26:31.871Z,-2.10
2019-03-27T02:29:01.829Z,-2.10
2019-03-27T02:31:31.830Z,-2.20
2019-03-27T02:34:02.135Z,-2.20
2019-03-27T02:36:32.196Z,-2.40
2019-03-27T02:39:02.323Z,-2.50
2019-03-27T02:41:32.462Z,-2.50
2019-03-27T02:44:02.433Z,-2.40
2019-03-27T02:46:32.493Z,-2.40
2019-03-27T02:49:02.515Z,-2.60
2019-03-27T02:51:32.491Z,-2.50
2019-03-27T02:54:02.487Z,-2.30
2019-03-27T02:56:32.511Z,-2.40
2019-03-27T02:59:02.524Z,-2.50
2019-03-27T03:01:32.479Z,-2.50
2019-03-27T03:04:02.490Z,-2.50
2019-03-27T03:06:32.605Z,-2.50
2019-03-27T03:09:04.587Z,-2.40
2019-03-27T03:11:34.556Z,-2.50
2019-03-27T03:14:04.531Z,-2.60
2019-03-27T03:16:42.106Z,-2.40
2019-03-27T03:19:06.486Z,-2.40
2019-03-27T03:21:36.602Z,-2.40
2019-03-27T03:24:06.570Z,-2.50
2019-03-27T03:26:36.564Z,-2.50
2019-03-27T03:29:06.621Z,-2.50
2019-03-27T03:31:36.603Z,-2.50
2019-03-27T03:34:06.618Z,-2.60
2019-03-27T03:36:36.963Z,-2.60
2019-03-27T03:39:07.805Z,-2.60
2019-03-27T03:41:37.859Z,-2.60
2019-03-27T03:44:07.830Z,-2.60
2019-03-27T03:46:38.120Z,-2.70
2019-03-27T03:49:08.190Z,-2.70
2019-03-27T03:51:38.265Z,-2.60
2019-03-27T03:54:08.736Z,-2.70
2019-03-27T03:56:41.404Z,-2.80
2019-03-27T03:59:13.564Z,-2.80
2019-03-27T04:01:46.035Z,-2.80
2019-03-27T04:04:17.735Z,-2.60
2019-03-27T04:06:47.713Z,-2.70
2019-03-27T04:09:17.706Z,-2.60
2019-03-27T04:11:47.743Z,-2.60
2019-03-27T04:14:17.716Z,-2.50
2019-03-27T04:16:47.764Z,-2.40
2019-03-27T04:19:17.732Z,-2.60
2019-03-27T04:21:47.824Z,-2.80
2019-03-27T04:24:17.766Z,-2.90
2019-03-27T04:26:47.790Z,-2.70
2019-03-27T04:29:17.846Z,-2.70
2019-03-27T04:31:47.857Z,-2.90
2019-03-27T04:34:17.823Z,-2.80
2019-03-27T04:36:47.862Z,-2.70
2019-03-27T04:39:17.860Z,-2.80
2019-03-27T04:41:47.880Z,-2.80
2019-03-27T04:44:17.899Z,-2.80
2019-03-27T04:46:47.922Z,-2.70
2019-03-27T04:49:17.952Z,-2.70
2019-03-27T04:51:47.966Z,-2.70
2019-03-27T04:54:18.378Z,-2.60
2019-03-27T04:56:48.375Z,-2.40
2019-03-27T04:59:18.723Z,-2.20
2019-03-27T05:01:48.736Z,-2.30
2019-03-27T05:04:18.812Z,-2.20
2019-03-27T05:06:48.849Z,-2.20
2019-03-27T05:09:19.222Z,-2.10
2019-03-27T05:11:49.216Z,-2.00
2019-03-27T05:14:19.200Z,-1.90
2019-03-27T05:16:49.431Z,-1.80
2019-03-27T05:19:19.400Z,-1.60
2019-03-27T05:21:49.385Z,-1.20
2019-03-27T05:24:19.381Z,-1.10
2019-03-27T05:26:49.712Z,-0.70
2019-03-27T05:29:19.908Z,-0.70
2019-03-27T05:31:49.954Z,-0.90
2019-03-27T05:34:20.059Z,-0.60
2019-03-27T05:36:50.228Z,-0.20
2019-03-27T05:39:20.202Z,0.20
2019-03-27T05:41:50.181Z,0.50
2019-03-27T05:44:20.219Z,0.70
2019-03-27T05:46:50.233Z,0.70
2019-03-27T05:49:20.433Z,0.80
2019-03-27T05:51:50.443Z,0.90
2019-03-27T05:54:20.437Z,1.00
2019-03-27T05:56:50.399Z,1.20
2019-03-27T05:59:20.469Z,1.60
2019-03-27T06:01:50.443Z,1.80
2019-03-27T06:04:20.397Z,2.30
2019-03-27T06:06:50.371Z,2.00
2019-03-27T06:11:49.546Z,2.50
2019-03-27T06:14:19.519Z,2.60
2019-03-27T06:16:49.759Z,2.70
2019-03-27T06:36:44.788Z,3.70
2019-03-27T06:46:42.292Z,4.70
2019-03-27T06:49:12.572Z,4.40
2019-03-27T06:51:42.628Z,4.90
2019-03-27T06:56:41.898Z,5.10
2019-03-27T06:59:12.162Z,5.40
2019-03-27T07:01:42.270Z,5.20
2019-03-27T07:04:12.263Z,4.70
2019-03-27T07:14:10.311Z,5.00
2019-03-27T07:34:05.045Z,6.40
2019-03-27T07:41:36.060Z,7.00
2019-03-27T07:44:06.404Z,7.30
2019-03-27T07:51:34.715Z,7.70
2019-03-27T07:56:34.310Z,7.30
2019-03-27T07:59:04.455Z,8.20
2019-03-27T08:01:34.557Z,8.60
2019-03-27T08:04:04.761Z,8.60
2019-03-27T08:11:34.824Z,8.20
2019-03-27T08:14:05.243Z,8.00
2019-03-27T08:19:07.738Z,8.70
2019-03-27T08:21:36.031Z,9.10
2019-03-27T08:24:06.043Z,10.00
2019-03-27T08:26:36.212Z,10.00
2019-03-27T08:29:06.225Z,10.10
2019-03-27T08:31:36.194Z,9.80
2019-03-27T08:34:06.204Z,9.80
2019-03-27T08:36:36.234Z,10.80
2019-03-27T08:39:08.689Z,10.00
2019-03-27T08:41:38.739Z,9.20
2019-03-27T08:46:37.884Z,9.80
2019-03-27T08:49:20.708Z,10.20
2019-03-27T08:54:09.021Z,9.90
2019-03-27T08:56:39.005Z,10.40
2019-03-27T08:59:09.037Z,11.10
2019-03-27T09:01:39.066Z,11.50
2019-03-27T09:04:09.050Z,12.00
2019-03-27T09:06:39.077Z,12.80
2019-03-27T09:09:10.169Z,12.30
2019-03-27T09:11:40.223Z,12.20
2019-03-27T09:14:10.241Z,12.10
2019-03-27T09:16:40.233Z,11.90
2019-03-27T09:19:10.198Z,12.20
2019-03-27T09:21:40.239Z,11.10
2019-03-27T09:24:10.401Z,12.40
2019-03-27T09:31:44.753Z,11.60
2019-03-27T09:34:10.342Z,12.60
2019-03-27T09:36:40.322Z,12.30
2019-03-27T09:39:11.183Z,12.00
2019-03-27T09:41:41.164Z,12.50
2019-03-27T09:44:11.256Z,12.00
2019-03-27T09:46:41.250Z,12.10
2019-03-27T09:51:40.470Z,11.70
2019-03-27T09:54:10.463Z,13.00
2019-03-27T09:56:40.485Z,12.30
2019-03-27T09:59:10.496Z,13.10
2019-03-27T10:01:40.514Z,13.20
2019-03-27T10:04:10.569Z,14.10
2019-03-27T10:06:40.674Z,14.10
2019-03-27T10:09:10.641Z,14.70
2019-03-27T10:11:40.686Z,14.10
2019-03-27T10:14:10.650Z,14.30
2019-03-27T10:19:09.810Z,12.60
2019-03-27T10:21:39.835Z,13.00
2019-03-27T10:24:09.814Z,14.00
2019-03-27T10:26:42.448Z,13.40
2019-03-27T10:29:11.419Z,14.20
2019-03-27T10:31:41.423Z,12.70
2019-03-27T10:34:11.363Z,13.60
2019-03-27T10:36:41.338Z,13.60
2019-03-27T10:39:11.332Z,13.30
2019-03-27T10:41:41.333Z,13.00
2019-03-27T10:44:12.207Z,13.90
2019-03-27T10:59:01.708Z,11.50
2019-03-27T11:03:58.268Z,12.10
2019-03-27T11:13:50.588Z,12.20
2019-03-27T11:16:19.228Z,11.60
2019-03-27T11:23:43.889Z,11.10
2019-03-27T11:28:40.373Z,11.00
2019-03-27T11:31:09.038Z,9.80
2019-03-27T11:33:37.733Z,9.70
2019-03-27T11:38:37.395Z,10.10
2019-03-27T11:41:04.811Z,9.90
2019-03-27T11:55:52.985Z,11.80
2019-03-27T11:58:21.869Z,13.90
2019-03-27T12:00:54.789Z,13.50
2019-03-27T12:03:23.510Z,13.70
2019-03-27T12:05:53.567Z,14.40
2019-03-27T12:08:23.581Z,15.40
2019-03-27T12:10:53.615Z,16.70
2019-03-27T12:13:23.700Z,17.70
2019-03-27T12:20:58.830Z,13.30
2019-03-27T12:23:23.805Z,11.00
2019-03-27T12:28:24.569Z,9.10
2019-03-27T12:30:54.566Z,9.80
2019-03-27T12:33:24.708Z,9.50
2019-03-27T12:35:54.717Z,9.10
2019-03-27T12:40:54.198Z,11.60
2019-03-27T12:43:24.095Z,11.30
2019-03-27T12:45:54.165Z,10.10
2019-03-27T12:50:53.380Z,12.00
2019-03-27T12:53:23.353Z,14.20
2019-03-27T13:03:22.888Z,13.80
2019-03-27T13:05:52.989Z,14.50
2019-03-27T13:08:22.993Z,16.80
2019-03-27T13:13:22.102Z,12.30
2019-03-27T13:18:21.343Z,13.90
2019-03-27T13:20:51.360Z,14.90
2019-03-27T13:23:21.476Z,14.70
2019-03-27T13:25:51.712Z,17.20
2019-03-27T13:28:21.773Z,16.50
2019-03-27T13:30:51.856Z,16.80
2019-03-27T13:33:21.844Z,16.70
2019-03-27T13:35:51.822Z,16.70
2019-03-27T13:38:21.922Z,16.00
2019-03-27T13:40:51.974Z,17.20
2019-03-27T13:43:22.079Z,16.40
2019-03-27T13:45:52.097Z,17.30
2019-03-27T13:48:22.091Z,17.80
2019-03-27T13:50:52.073Z,17.40
2019-03-27T13:53:22.107Z,18.90
2019-03-27T13:55:52.103Z,18.40
2019-03-27T14:03:20.520Z,15.30
2019-03-27T14:05:50.588Z,17.70
2019-03-27T14:08:20.644Z,15.90
2019-03-27T14:10:50.743Z,17.10
2019-03-27T14:13:20.934Z,16.00
2019-03-27T14:20:49.407Z,16.10
2019-03-27T14:23:19.374Z,16.20
2019-03-27T14:28:18.552Z,15.90
2019-03-27T14:30:56.433Z,15.90
2019-03-27T14:38:25.258Z,15.90
2019-03-27T14:40:55.347Z,16.10
2019-03-27T14:43:27.089Z,15.60
2019-03-27T14:45:56.963Z,17.10
2019-03-27T14:48:26.908Z,16.30
2019-03-27T14:50:56.859Z,16.10
2019-03-27T14:55:55.988Z,16.40
2019-03-27T14:58:25.967Z,16.70
2019-03-27T15:00:55.974Z,16.90
2019-03-27T15:05:55.263Z,15.10
2019-03-27T15:18:22.617Z,14.50
2019-03-27T15:20:52.992Z,15.10
2019-03-27T15:23:23.356Z,16.70
2019-03-27T15:28:22.524Z,14.20
2019-03-27T15:30:52.504Z,11.10
2019-03-27T15:33:22.516Z,10.50
2019-03-27T15:35:52.504Z,9.50
2019-03-27T15:38:22.526Z,9.70
2019-03-27T15:40:52.558Z,9.30
2019-03-27T15:43:22.505Z,8.80
2019-03-27T15:45:52.508Z,8.80
2019-03-27T15:48:22.489Z,8.60
2019-03-27T15:50:58.411Z,8.50
2019-03-27T15:53:24.297Z,8.30
2019-03-27T15:55:54.539Z,8.40
2019-03-27T15:58:24.650Z,8.50
2019-03-27T16:00:54.851Z,8.40
2019-03-27T16:03:24.845Z,8.50
2019-03-27T16:05:54.877Z,8.50
2019-03-27T16:08:24.929Z,8.40
2019-03-27T16:10:55.024Z,8.40
2019-03-27T16:13:25.252Z,8.40
2019-03-27T16:15:55.417Z,8.40
2019-03-27T16:18:25.850Z,8.50
2019-03-27T16:20:55.936Z,8.50
2019-03-27T16:23:26.008Z,8.40
2019-03-27T16:25:56.245Z,8.40
2019-03-27T16:28:26.226Z,8.40
2019-03-27T16:30:56.252Z,8.30
2019-03-27T16:33:26.282Z,8.30
2019-03-27T18:27:33.971Z,7.50
2019-03-27T18:30:04.468Z,7.50
2019-03-27T18:32:34.531Z,7.50
2019-03-27T18:35:04.693Z,7.40
2019-03-27T18:37:35.775Z,7.40
2019-03-27T18:40:06.239Z,7.30
2019-03-27T18:42:36.298Z,7.40
2019-03-27T18:45:06.916Z,7.40
2019-03-27T18:47:36.940Z,7.30
2019-03-27T18:50:07.459Z,7.30
2019-03-27T18:52:37.452Z,7.30
2019-03-27T18:55:07.758Z,7.20
2019-03-27T18:57:38.070Z,7.20
2019-03-27T19:00:08.891Z,7.20
2019-03-27T19:02:39.275Z,7.30
2019-03-27T19:05:10.017Z,7.40
2019-03-27T19:07:40.045Z,7.30
2019-03-27T19:10:10.221Z,7.40
2019-03-27T19:12:40.429Z,7.40
2019-03-27T19:15:11.213Z,7.40
2019-03-27T19:17:41.286Z,7.40
2019-03-27T19:20:11.463Z,7.50
2019-03-27T19:22:41.417Z,7.50
2019-03-27T19:25:12.028Z,7.50
2019-03-27T19:27:42.047Z,7.50
2019-03-27T19:30:12.524Z,7.60
2019-03-27T19:32:42.473Z,7.60
2019-03-27T19:35:12.545Z,7.50
2019-03-27T19:37:44.783Z,7.40
2019-03-27T19:40:14.795Z,7.60
2019-03-27T19:42:45.271Z,7.60
2019-03-27T19:45:16.360Z,7.60
2019-03-27T19:47:46.375Z,7.60
2019-03-27T19:50:17.271Z,7.60
2019-03-27T19:52:47.255Z,7.60
2019-03-27T19:55:17.635Z,7.60
2019-03-27T19:57:47.625Z,7.60
2019-03-27T20:00:18.806Z,7.60
2019-03-27T20:02:48.810Z,7.60
2019-03-27T20:05:18.813Z,7.50
2019-03-27T20:07:48.817Z,7.40
2019-03-27T20:10:18.948Z,7.40
2019-03-27T20:12:49.013Z,7.50
2019-03-27T20:15:19.526Z,7.50
2019-03-27T20:17:49.541Z,7.60
2019-03-27T20:20:19.698Z,7.60
2019-03-27T20:22:49.650Z,7.50
2019-03-27T20:25:19.661Z,7.50
2019-03-27T20:27:51.144Z,7.50
2019-03-27T20:30:22.168Z,7.50
2019-03-27T20:32:52.170Z,7.40
2019-03-27T20:35:23.039Z,7.40
2019-03-27T20:37:53.409Z,7.40
2019-03-27T20:40:23.425Z,7.40
2019-03-27T20:42:53.394Z,7.40
2019-03-27T20:45:23.598Z,7.40
2019-03-27T20:47:53.628Z,7.40
2019-03-27T20:50:26.673Z,7.40
2019-03-27T20:52:55.334Z,7.40
2019-03-27T20:55:30.557Z,7.40
2019-03-27T20:57:57.117Z,7.30
2019-03-27T21:00:27.090Z,7.30
2019-03-27T21:02:57.140Z,7.40
2019-03-27T21:05:27.163Z,7.30
2019-03-27T21:07:57.538Z,7.30
2019-03-27T21:10:27.607Z,7.40
2019-03-27T21:12:57.750Z,7.30
2019-03-27T21:15:28.010Z,7.30
2019-03-27T21:17:58.264Z,7.20
2019-03-27T21:20:28.321Z,7.20
2019-03-27T21:22:58.857Z,7.10
2019-03-27T21:25:28.912Z,7.00
2019-03-27T21:27:58.961Z,6.90
2019-03-27T21:30:29.141Z,6.80
2019-03-27T21:32:59.373Z,6.70
2019-03-27T21:35:29.512Z,6.70
2019-03-27T21:37:59.886Z,6.70
2019-03-27T21:40:29.918Z,6.70
2019-03-27T21:43:00.049Z,6.60
2019-03-27T21:45:32.294Z,6.60
2019-03-27T21:48:02.340Z,6.60
2019-03-27T21:50:32.629Z,6.60
2019-03-27T21:53:02.782Z,6.70
2019-03-27T21:55:42.613Z,6.70
2019-03-27T21:58:04.562Z,6.70
2019-03-27T22:00:39.458Z,6.70
2019-03-27T22:03:09.610Z,6.70
2019-03-27T22:05:39.761Z,6.70
2019-03-27T22:08:09.927Z,6.80
2019-03-27T22:10:40.340Z,6.80
2019-03-27T22:13:10.489Z,6.90
2019-03-27T22:15:40.566Z,6.90
2019-03-27T22:18:10.565Z,6.90
2019-03-27T22:20:40.887Z,6.90
2019-03-27T22:23:11.006Z,6.90
2019-03-27T22:25:41.105Z,6.90
2019-03-27T22:28:11.154Z,6.90
2019-03-27T22:30:41.280Z,6.90
2019-03-27T22:33:11.390Z,6.90
2019-03-27T22:35:41.569Z,6.90
2019-03-27T22:38:11.583Z,6.90
2019-03-27T22:40:41.584Z,6.90
2019-03-27T22:43:11.551Z,6.90
2019-03-27T22:45:41.897Z,7.00
2019-03-27T22:48:12.031Z,6.90
2019-03-27T22:50:42.101Z,6.90
2019-03-27T22:55:49.672Z,6.90
2019-03-27T22:58:13.228Z,6.90
2019-03-27T23:00:51.075Z,6.90
2019-03-27T23:03:21.237Z,6.90
2019-03-27T23:05:51.358Z,6.80
2019-03-27T23:08:21.554Z,6.80
2019-03-27T23:10:51.641Z,6.70
2019-03-27T23:13:22.127Z,6.70
2019-03-27T23:15:52.175Z,6.60
2019-03-27T23:18:23.224Z,6.70
2019-03-27T23:20:53.291Z,6.70
2019-03-27T23:23:23.533Z,6.80
2019-03-27T23:26:02.878Z,6.80
2019-03-27T23:28:25.300Z,6.80
2019-03-27T23:30:55.416Z,6.80
2019-03-27T23:33:26.444Z,6.80
2019-03-27T23:35:56.614Z,6.90
2019-03-27T23:38:26.695Z,6.90
2019-03-27T23:40:56.708Z,6.90
2019-03-27T23:43:26.695Z,6.90
2019-03-27T23:45:56.854Z,6.90
2019-03-27T23:48:26.861Z,6.90
2019-03-27T23:50:56.915Z,6.90
2019-03-27T23:53:26.884Z,6.90
2019-03-27T23:55:56.882Z,6.80
2019-03-27T23:58:26.898Z,6.80
